Time;durP1;ratioP1;P1;durP2;ratioP2;P2;SDS_P1;SDS_P2;PMS_P1;PMS_P2;Temp;Humidity;BMP_temperature;BMP_pressure;BME280_temperature;BME280_humidity;BME280_pressure;Samples;Min_cycle;Max_cycle;Signal;HPM_P1;HPM_P2
2024/02/01 00:01:56;;;;;;;25.00;16.10;;;;;;;;;;103773;1289;544808;-72
2024/02/01 00:05:34;;;;;;;24.60;15.30;;;;;;;;;;103769;1295;544769;-71
2024/02/01 00:09:12;;;;;;;23.60;15.80;;;;;;;;;;104219;1289;545108;-71
2024/02/01 00:12:48;;;;;;;26.00;15.70;;;;;;;;;;103956;1288;545409;-72
2024/02/01 00:16:26;;;;;;;22.80;14.80;;;;;;;;;;103618;1295;546236;-71
2024/02/01 00:20:04;;;;;;;22.90;15.60;;;;;;;;;;103687;1290;545079;-72
2024/02/01 00:23:42;;;;;;;23.90;15.70;;;;;;;;;;103659;1292;545757;-71
2024/02/01 00:27:19;;;;;;;22.80;15.00;;;;;;;;;;103694;1291;544864;-71
2024/02/01 00:30:57;;;;;;;24.50;15.30;;;;;;;;;;103769;1289;544764;-71
2024/02/01 00:34:53;;;;;;;23.00;14.10;;;;;;;;;;103607;1289;548005;-72
2024/02/01 00:38:11;;;;;;;22.80;14.70;;;;;;;;;;103667;1292;545510;-72
2024/02/01 00:41:48;;;;;;;22.10;14.20;;;;;;;;;;103619;1291;545834;-71
2024/02/01 00:45:26;;;;;;;21.90;14.80;;;;;;;;;;103900;1289;544930;-72
2024/02/01 00:49:03;;;;;;;21.20;14.20;;;;;;;;;;103748;1295;545322;-71
2024/02/01 00:52:42;;;;;;;23.80;14.90;;;;;;;;;;103517;1291;545885;-71
2024/02/01 00:56:18;;;;;;;22.70;15.20;;;;;;;;;;103643;1289;546020;-71
2024/02/01 00:59:56;;;;;;;23.20;15.60;;;;;;;;;;103774;1292;544710;-71
2024/02/01 01:03:33;;;;;;;21.90;14.90;;;;;;;;;;103713;1291;544813;-71
2024/02/01 01:07:10;;;;;;;20.60;14.20;;;;;;;;;;103628;1295;544924;-72
2024/02/01 01:10:48;;;;;;;21.30;14.20;;;;;;;;;;103755;1295;545492;-71
2024/02/01 01:14:26;;;;;;;20.10;13.30;;;;;;;;;;103473;1292;545063;-71
2024/02/01 01:18:03;;;;;;;20.80;13.80;;;;;;;;;;103896;1295;545430;-71
2024/02/01 01:21:41;;;;;;;19.50;12.70;;;;;;;;;;103631;1291;545523;-71
2024/02/01 01:25:18;;;;;;;19.00;12.60;;;;;;;;;;103699;1302;544977;-72
2024/02/01 01:28:56;;;;;;;18.10;12.60;;;;;;;;;;103641;1291;545369;-72
2024/02/01 01:32:33;;;;;;;19.90;13.60;;;;;;;;;;104348;1285;546083;-71
2024/02/01 01:36:10;;;;;;;21.40;13.40;;;;;;;;;;103743;1302;545697;-71
2024/02/01 01:39:48;;;;;;;19.70;12.60;;;;;;;;;;104089;1291;544976;-71
2024/02/01 01:43:25;;;;;;;22.60;14.80;;;;;;;;;;103668;1289;545729;-71
2024/02/01 01:47:02;;;;;;;23.00;15.20;;;;;;;;;;103748;1292;544947;-71
2024/02/01 01:50:41;;;;;;;27.90;16.70;;;;;;;;;;103615;1291;545067;-71
2024/02/01 01:54:20;;;;;;;26.00;16.40;;;;;;;;;;103656;1291;544974;-72
2024/02/01 01:57:56;;;;;;;21.20;12.30;;;;;;;;;;103737;1291;545689;-71
2024/02/01 02:01:35;;;;;;;17.20;10.10;;;;;;;;;;103687;1292;544960;-71
2024/02/01 02:05:11;;;;;;;14.60;9.10;;;;;;;;;;103660;1294;545074;-71
2024/02/01 02:08:47;;;;;;;16.20;10.50;;;;;;;;;;103734;1289;544860;-72
2024/02/01 02:12:25;;;;;;;21.10;11.90;;;;;;;;;;103707;1291;544812;-71
2024/02/01 02:16:03;;;;;;;19.00;11.10;;;;;;;;;;103819;1302;545256;-71
2024/02/01 02:19:40;;;;;;;17.00;9.60;;;;;;;;;;103829;1289;545316;-71
2024/02/01 02:23:17;;;;;;;13.90;7.30;;;;;;;;;;103647;1289;545659;-71
2024/02/01 02:26:55;;;;;;;13.30;8.20;;;;;;;;;;103580;1295;545192;-72
2024/02/01 02:30:32;;;;;;;14.70;8.70;;;;;;;;;;103760;1291;544773;-72
2024/02/01 02:34:10;;;;;;;13.00;8.20;;;;;;;;;;103662;1289;545092;-72
2024/02/01 02:37:48;;;;;;;13.00;7.70;;;;;;;;;;103715;1288;545450;-71
2024/02/01 02:41:25;;;;;;;12.70;7.20;;;;;;;;;;103618;1290;545007;-71
2024/02/01 02:45:02;;;;;;;12.40;8.20;;;;;;;;;;103600;1291;545690;-71
2024/02/01 02:48:40;;;;;;;13.80;8.40;;;;;;;;;;103990;1289;545482;-71
2024/02/01 02:52:16;;;;;;;15.60;9.00;;;;;;;;;;103742;1292;544728;-71
2024/02/01 02:55:55;;;;;;;13.80;8.10;;;;;;;;;;103759;1294;544660;-71
2024/02/01 02:59:32;;;;;;;12.10;8.00;;;;;;;;;;103742;1292;545958;-71
2024/02/01 03:03:10;;;;;;;15.20;10.00;;;;;;;;;;103594;1291;544818;-71
2024/02/01 03:06:47;;;;;;;14.40;9.00;;;;;;;;;;103683;1295;544773;-72
2024/02/01 03:10:26;;;;;;;17.00;10.90;;;;;;;;;;103590;1293;544961;-71
2024/02/01 03:14:02;;;;;;;18.50;11.60;;;;;;;;;;103748;1289;544959;-72
2024/02/01 03:17:40;;;;;;;18.80;11.70;;;;;;;;;;103687;1294;544867;-71
2024/02/01 03:21:13;;;;;;;18.40;11.70;;;;;;;;;;103842;1292;545524;-71
2024/02/01 03:25:02;;;;;;;17.00;10.50;;;;;;;;;;103603;1289;545001;-71
2024/02/01 03:28:31;;;;;;;16.90;10.90;;;;;;;;;;103726;1295;544845;-71
2024/02/01 03:32:11;;;;;;;16.00;9.80;;;;;;;;;;103603;1291;546106;-71
2024/02/01 03:35:49;;;;;;;16.80;11.00;;;;;;;;;;104546;1282;545883;-71
2024/02/01 03:39:25;;;;;;;17.90;10.40;;;;;;;;;;103719;1292;544741;-72
2024/02/01 03:43:02;;;;;;;17.60;11.60;;;;;;;;;;103723;1292;544738;-72
2024/02/01 03:46:41;;;;;;;16.10;10.60;;;;;;;;;;103524;1291;545156;-71
2024/02/01 03:50:14;;;;;;;16.80;10.70;;;;;;;;;;103743;1295;545600;-72
2024/02/01 03:53:55;;;;;;;16.60;10.50;;;;;;;;;;103584;1295;544792;-71
2024/02/01 03:57:31;;;;;;;15.70;9.70;;;;;;;;;;103683;1295;545603;-71
2024/02/01 04:01:10;;;;;;;16.50;10.90;;;;;;;;;;103702;1298;545364;-71
2024/02/01 04:04:47;;;;;;;15.30;10.10;;;;;;;;;;103831;1289;544798;-71
2024/02/01 04:08:24;;;;;;;15.40;10.00;;;;;;;;;;103769;1294;545300;-71
2024/02/01 04:12:01;;;;;;;16.10;10.00;;;;;;;;;;103792;1291;545136;-71
2024/02/01 04:15:35;;;;;;;14.40;9.40;;;;;;;;;;104060;1287;545497;-71
2024/02/01 04:19:16;;;;;;;14.90;9.40;;;;;;;;;;103640;1291;544991;-72
2024/02/01 04:22:54;;;;;;;13.10;8.60;;;;;;;;;;103565;1292;544882;-72
2024/02/01 04:26:31;;;;;;;12.90;7.90;;;;;;;;;;103669;1292;545551;-71
2024/02/01 04:30:08;;;;;;;12.30;7.40;;;;;;;;;;103525;1298;545992;-72
2024/02/01 04:33:46;;;;;;;13.50;8.00;;;;;;;;;;103726;1292;545131;-71
2024/02/01 04:37:24;;;;;;;13.00;7.30;;;;;;;;;;103492;1294;545655;-72
2024/02/01 04:41:00;;;;;;;11.20;6.70;;;;;;;;;;103706;1290;545149;-71
2024/02/01 04:44:38;;;;;;;12.90;7.00;;;;;;;;;;104107;1286;545794;-71
2024/02/01 04:48:15;;;;;;;11.30;6.70;;;;;;;;;;104528;1286;545056;-71
2024/02/01 04:51:53;;;;;;;12.00;7.20;;;;;;;;;;103729;1293;544910;-72
2024/02/01 04:55:30;;;;;;;12.00;6.10;;;;;;;;;;103679;1289;544824;-71
2024/02/01 04:59:08;;;;;;;10.20;5.50;;;;;;;;;;103606;1289;544818;-71
2024/02/01 05:02:48;;;;;;;12.30;7.20;;;;;;;;;;103701;1291;545641;-71
2024/02/01 05:06:23;;;;;;;13.70;7.00;;;;;;;;;;103840;1291;545533;-71
2024/02/01 05:10:00;;;;;;;13.60;8.50;;;;;;;;;;103642;1291;544854;-72
2024/02/01 05:13:34;;;;;;;14.10;8.40;;;;;;;;;;103933;1288;544869;-72
2024/02/01 05:17:15;;;;;;;14.80;8.50;;;;;;;;;;103654;1295;545545;-72
2024/02/01 05:20:53;;;;;;;14.60;7.70;;;;;;;;;;103566;1294;545721;-73
2024/02/01 05:24:30;;;;;;;10.50;6.00;;;;;;;;;;103863;1291;544996;-72
2024/02/01 05:28:10;;;;;;;9.60;4.60;;;;;;;;;;103641;1294;545799;-72
2024/02/01 05:31:47;;;;;;;9.90;5.50;;;;;;;;;;103789;1289;546029;-71
2024/02/01 05:35:30;;;;;;;9.10;4.60;;;;;;;;;;103800;1288;544861;-72
2024/02/01 05:39:05;;;;;;;9.50;5.10;;;;;;;;;;103651;1291;544768;-71
2024/02/01 05:42:38;;;;;;;9.00;4.30;;;;;;;;;;103659;1289;544992;-72
2024/02/01 05:46:14;;;;;;;9.10;4.50;;;;;;;;;;104190;1285;545036;-72
2024/02/01 05:49:54;;;;;;;10.90;5.50;;;;;;;;;;103644;1291;545482;-72
2024/02/01 05:53:49;;;;;;;10.50;5.00;;;;;;;;;;103507;1291;548703;-72
2024/02/01 05:57:09;;;;;;;9.00;4.40;;;;;;;;;;103678;1294;545079;-72
2024/02/01 06:00:45;;;;;;;9.10;4.40;;;;;;;;;;103727;1292;544875;-72
2024/02/01 06:04:23;;;;;;;10.30;4.70;;;;;;;;;;103632;1291;545673;-71
2024/02/01 06:07:56;;;;;;;9.50;4.60;;;;;;;;;;103686;1295;544949;-72
2024/02/01 06:11:39;;;;;;;8.90;4.60;;;;;;;;;;103767;1289;544980;-72
2024/02/01 06:15:15;;;;;;;20.70;9.10;;;;;;;;;;103683;1292;545069;-71
2024/02/01 06:18:53;;;;;;;11.10;5.20;;;;;;;;;;103703;1291;545042;-72
2024/02/01 06:22:31;;;;;;;9.20;4.80;;;;;;;;;;103688;1291;545166;-71
2024/02/01 06:26:07;;;;;;;8.10;4.20;;;;;;;;;;103685;1290;544922;-71
2024/02/01 06:29:45;;;;;;;8.60;4.60;;;;;;;;;;103796;1295;544818;-71
2024/02/01 06:33:28;;;;;;;11.00;4.50;;;;;;;;;;103787;1289;544920;-72
2024/02/01 06:36:58;;;;;;;8.70;4.70;;;;;;;;;;103664;1292;544844;-72
2024/02/01 06:40:37;;;;;;;9.20;4.60;;;;;;;;;;103578;1294;544826;-72
2024/02/01 06:44:21;;;;;;;9.10;4.30;;;;;;;;;;103684;1291;545968;-71
2024/02/01 06:48:00;;;;;;;8.70;4.90;;;;;;;;;;103562;1292;545135;-71
2024/02/01 06:51:33;;;;;;;8.20;4.50;;;;;;;;;;104026;1290;544828;-72
2024/02/01 06:58:49;;;;;;;11.60;5.00;;;;;;;;;;103688;1294;544800;-72
2024/02/01 07:02:35;;;;;;;10.20;5.10;;;;;;;;;;103796;1292;545745;-72
2024/02/01 07:06:06;;;;;;;12.60;5.90;;;;;;;;;;103694;1291;545289;-72
2024/02/01 07:09:37;;;;;;;17.40;11.40;;;;;;;;;;103560;1295;544747;-72
2024/02/01 07:13:34;;;;;;;11.30;7.30;;;;;;;;;;103654;1303;544869;-72
2024/02/01 07:16:55;;;;;;;8.60;4.30;;;;;;;;;;103594;1291;546328;-71
2024/02/01 07:20:35;;;;;;;9.70;4.10;;;;;;;;;;103621;1291;545610;-72
2024/02/01 07:24:17;;;;;;;8.70;3.80;;;;;;;;;;103670;1291;544818;-72
2024/02/01 08:00:32;;;;;;;7.00;3.20;;;;;;;;;;103785;1292;544980;-72
2024/02/01 08:04:12;;;;;;;7.50;3.20;;;;;;;;;;103781;1289;545242;-72
2024/02/01 08:07:48;;;;;;;8.10;3.40;;;;;;;;;;103581;1290;544997;-72
2024/02/01 08:11:18;;;;;;;10.60;3.60;;;;;;;;;;103687;1300;545239;-71
2024/02/01 08:14:51;;;;;;;9.00;3.50;;;;;;;;;;103765;1291;545801;-72
2024/02/01 08:18:34;;;;;;;10.70;3.80;;;;;;;;;;104570;1283;544747;-72
2024/02/01 08:22:02;;;;;;;9.30;3.90;;;;;;;;;;103725;1291;544942;-71
2024/02/01 08:25:42;;;;;;;8.60;3.30;;;;;;;;;;103756;1295;545837;-72
2024/02/01 08:29:27;;;;;;;7.80;2.70;;;;;;;;;;103656;1291;545577;-72
2024/02/01 08:33:15;;;;;;;7.90;2.80;;;;;;;;;;103928;1292;545300;-72
2024/02/01 08:36:34;;;;;;;8.20;2.80;;;;;;;;;;103897;1289;545671;-72
2024/02/01 08:40:17;;;;;;;6.30;2.20;;;;;;;;;;103925;1294;545918;-72
2024/02/01 08:43:48;;;;;;;4.90;1.80;;;;;;;;;;103800;1291;545396;-71
2024/02/01 08:47:29;;;;;;;6.60;2.20;;;;;;;;;;103772;1289;545258;-72
2024/02/01 08:51:08;;;;;;;6.50;2.30;;;;;;;;;;104112;1297;545021;-72
2024/02/01 08:54:43;;;;;;;6.00;1.80;;;;;;;;;;103841;1290;545479;-72
2024/02/01 08:58:21;;;;;;;4.20;1.60;;;;;;;;;;103660;1292;544957;-72
2024/02/01 09:01:59;;;;;;;5.20;1.70;;;;;;;;;;103702;1295;545675;-71
2024/02/01 09:05:44;;;;;;;4.40;1.40;;;;;;;;;;103802;1292;545038;-72
2024/02/01 09:09:28;;;;;;;3.60;1.20;;;;;;;;;;103779;1292;544875;-72
2024/02/01 09:12:51;;;;;;;3.40;1.20;;;;;;;;;;104525;1282;545036;-72
2024/02/01 09:16:31;;;;;;;2.90;1.10;;;;;;;;;;103713;1292;545757;-72
2024/02/01 09:20:16;;;;;;;4.70;1.40;;;;;;;;;;103913;1292;545253;-73
2024/02/01 09:23:43;;;;;;;3.00;1.20;;;;;;;;;;103735;1289;545313;-72
2024/02/01 09:27:23;;;;;;;4.40;1.20;;;;;;;;;;103446;1290;545087;-70
2024/02/01 09:30:59;;;;;;;3.50;1.10;;;;;;;;;;104228;1285;544912;-73
2024/02/01 09:34:37;;;;;;;3.80;1.20;;;;;;;;;;103681;1289;544960;-72
2024/02/01 09:38:13;;;;;;;3.40;1.30;;;;;;;;;;103766;1289;545048;-70
2024/02/01 09:41:53;;;;;;;3.00;1.10;;;;;;;;;;103612;1290;545794;-72
2024/02/01 09:45:28;;;;;;;2.90;1.00;;;;;;;;;;103886;1289;544792;-73
2024/02/01 09:49:06;;;;;;;5.30;1.50;;;;;;;;;;103634;1291;545510;-71
2024/02/01 09:52:44;;;;;;;3.40;1.20;;;;;;;;;;103607;1290;545365;-72
2024/02/01 09:56:25;;;;;;;3.80;1.10;;;;;;;;;;103602;1292;545016;-72
2024/02/01 09:59:58;;;;;;;3.80;1.20;;;;;;;;;;103821;1294;545017;-72
2024/02/01 10:03:31;;;;;;;3.70;1.30;;;;;;;;;;103813;1296;545422;-72
2024/02/01 10:07:12;;;;;;;4.00;1.20;;;;;;;;;;103804;1289;544974;-70
2024/02/01 10:10:50;;;;;;;3.60;1.10;;;;;;;;;;103618;1295;544984;-70
2024/02/01 10:14:38;;;;;;;5.50;1.90;;;;;;;;;;103811;1288;544843;-70
2024/02/01 10:18:13;;;;;;;3.20;1.00;;;;;;;;;;103624;1289;544780;-70
2024/02/01 10:21:44;;;;;;;3.80;1.10;;;;;;;;;;103753;1289;544983;-70
2024/02/01 10:25:21;;;;;;;3.20;1.00;;;;;;;;;;103454;1291;544879;-70
2024/02/01 10:28:57;;;;;;;2.70;1.00;;;;;;;;;;103839;1289;545540;-72
2024/02/01 10:32:56;;;;;;;5.20;1.20;;;;;;;;;;103986;1293;548502;-71
2024/02/01 10:36:12;;;;;;;3.10;1.10;;;;;;;;;;103713;1291;545490;-71
2024/02/01 10:39:54;;;;;;;4.60;1.20;;;;;;;;;;103779;1292;545037;-69
2024/02/01 10:43:29;;;;;;;5.10;1.50;;;;;;;;;;103788;1289;544920;-72
2024/02/01 10:47:12;;;;;;;4.80;1.40;;;;;;;;;;103583;1292;544796;-71
2024/02/01 10:50:43;;;;;;;4.00;1.50;;;;;;;;;;103743;1292;545300;-70
2024/02/01 10:54:19;;;;;;;5.70;2.10;;;;;;;;;;103669;1291;545639;-71
2024/02/01 10:57:59;;;;;;;6.20;2.00;;;;;;;;;;103803;1288;544768;-72
2024/02/01 11:01:36;;;;;;;9.80;4.00;;;;;;;;;;103616;1290;545060;-71
2024/02/01 11:05:12;;;;;;;17.30;6.50;;;;;;;;;;103963;1292;545036;-73
2024/02/01 11:08:51;;;;;;;8.70;3.30;;;;;;;;;;103661;1291;544784;-70
2024/02/01 11:12:27;;;;;;;11.30;4.60;;;;;;;;;;104014;1291;545056;-71
2024/02/01 11:16:05;;;;;;;13.20;5.70;;;;;;;;;;103587;1293;544970;-72
2024/02/01 11:19:41;;;;;;;12.40;6.20;;;;;;;;;;103810;1290;544750;-71
2024/02/01 11:23:20;;;;;;;8.80;3.60;;;;;;;;;;103739;1290;545056;-72
2024/02/01 11:26:57;;;;;;;8.40;3.50;;;;;;;;;;103802;1289;545182;-72
2024/02/01 11:30:35;;;;;;;7.50;3.30;;;;;;;;;;103603;1295;545511;-71
2024/02/01 11:34:12;;;;;;;8.80;3.80;;;;;;;;;;104094;1286;545484;-72
2024/02/01 11:38:01;;;;;;;7.10;3.00;;;;;;;;;;103862;1288;545264;-70
2024/02/01 11:41:22;;;;;;;7.70;2.90;;;;;;;;;;103786;1292;544849;-71
2024/02/01 11:45:08;;;;;;;8.80;3.60;;;;;;;;;;103676;1291;545178;-72
2024/02/01 11:48:42;;;;;;;10.80;4.70;;;;;;;;;;103780;1289;544904;-72
2024/02/01 11:52:31;;;;;;;16.00;7.30;;;;;;;;;;103672;1289;545105;-72
2024/02/01 11:55:56;;;;;;;11.70;5.20;;;;;;;;;;103826;1289;544705;-70
2024/02/01 11:59:34;;;;;;;8.80;3.90;;;;;;;;;;103594;1289;544875;-72
2024/02/01 12:03:11;;;;;;;7.60;3.10;;;;;;;;;;103639;1291;545352;-72
2024/02/01 12:06:50;;;;;;;7.60;2.80;;;;;;;;;;103875;1288;544847;-72
2024/02/01 12:10:30;;;;;;;8.80;2.90;;;;;;;;;;103894;1289;544811;-72
2024/02/01 12:14:11;;;;;;;7.00;3.10;;;;;;;;;;103575;1289;545083;-70
2024/02/01 12:17:42;;;;;;;6.00;2.00;;;;;;;;;;104110;1285;544928;-70
2024/02/01 12:21:26;;;;;;;6.70;2.20;;;;;;;;;;103757;1301;545239;-72
2024/02/01 12:24:57;;;;;;;9.80;3.50;;;;;;;;;;103777;1292;545669;-72
2024/02/01 12:28:34;;;;;;;9.30;3.70;;;;;;;;;;103782;1288;544992;-70
2024/02/01 12:32:12;;;;;;;9.10;3.90;;;;;;;;;;103918;1300;545942;-70
2024/02/01 12:35:46;;;;;;;7.70;2.90;;;;;;;;;;103547;1291;545702;-70
2024/02/01 12:39:32;;;;;;;6.70;2.30;;;;;;;;;;103616;1289;544920;-70
2024/02/01 12:43:04;;;;;;;7.60;2.20;;;;;;;;;;103595;1292;544812;-70
2024/02/01 12:46:44;;;;;;;8.10;2.20;;;;;;;;;;103717;1291;545894;-70
2024/02/01 12:50:20;;;;;;;8.40;2.90;;;;;;;;;;103577;1297;544789;-69
2024/02/01 12:53:59;;;;;;;11.60;3.40;;;;;;;;;;103758;1289;544932;-71
2024/02/01 12:57:53;;;;;;;8.20;2.50;;;;;;;;;;103616;1293;546150;-72
2024/02/01 13:01:12;;;;;;;9.50;2.40;;;;;;;;;;103796;1290;544999;-72
2024/02/01 13:04:49;;;;;;;9.30;3.50;;;;;;;;;;103623;1292;546196;-71
2024/02/01 13:08:26;;;;;;;9.70;3.50;;;;;;;;;;103787;1296;545395;-70
2024/02/01 13:12:18;;;;;;;9.70;2.60;;;;;;;;;;103766;1297;544937;-72
2024/02/01 13:15:46;;;;;;;9.30;3.10;;;;;;;;;;103799;1288;545002;-69
2024/02/01 13:19:19;;;;;;;7.60;2.30;;;;;;;;;;103482;1292;545459;-69
2024/02/01 13:22:56;;;;;;;6.80;2.30;;;;;;;;;;103767;1289;544958;-70
2024/02/01 13:26:36;;;;;;;9.00;2.50;;;;;;;;;;103597;1292;544938;-69
2024/02/01 13:30:11;;;;;;;7.00;2.10;;;;;;;;;;103815;1289;545049;-71
2024/02/01 13:33:48;;;;;;;7.20;2.00;;;;;;;;;;103642;1289;545393;-71
2024/02/01 13:37:25;;;;;;;10.00;3.30;;;;;;;;;;103738;1288;544810;-70
2024/02/01 13:41:23;;;;;;;8.00;2.70;;;;;;;;;;103637;1292;547818;-71
2024/02/01 13:44:40;;;;;;;11.40;3.30;;;;;;;;;;103822;1289;544992;-72
2024/02/01 13:48:19;;;;;;;8.50;2.90;;;;;;;;;;103612;1291;545104;-70
2024/02/01 13:51:56;;;;;;;7.30;2.70;;;;;;;;;;103595;1292;545373;-70
2024/02/01 13:55:33;;;;;;;7.70;2.10;;;;;;;;;;104095;1286;544778;-69
2024/02/01 13:59:11;;;;;;;10.40;4.30;;;;;;;;;;103787;1295;545550;-70
2024/02/01 14:02:49;;;;;;;9.50;3.00;;;;;;;;;;103796;1292;545051;-70
2024/02/01 14:06:25;;;;;;;10.10;3.40;;;;;;;;;;103707;1292;544949;-69
2024/02/01 14:10:08;;;;;;;8.20;2.60;;;;;;;;;;103758;1292;545244;-71
2024/02/01 14:13:40;;;;;;;9.60;3.00;;;;;;;;;;103376;1292;545546;-70
2024/02/01 14:17:17;;;;;;;8.30;2.60;;;;;;;;;;103520;1292;544808;-68
2024/02/01 14:20:55;;;;;;;14.30;6.00;;;;;;;;;;103734;1292;545456;-71
2024/02/01 14:24:38;;;;;;;14.00;5.60;;;;;;;;;;103554;1291;548056;-70
2024/02/01 14:28:10;;;;;;;9.80;3.80;;;;;;;;;;103825;1289;545961;-71
2024/02/01 14:31:47;;;;;;;16.20;7.10;;;;;;;;;;103632;1295;544986;-70
2024/02/01 14:35:25;;;;;;;10.60;3.70;;;;;;;;;;103845;1289;544915;-72
2024/02/01 14:39:20;;;;;;;12.80;5.30;;;;;;;;;;103712;1291;545312;-73
2024/02/01 14:42:36;;;;;;;10.40;3.80;;;;;;;;;;103843;1300;545635;-69
2024/02/01 14:46:18;;;;;;;9.40;3.50;;;;;;;;;;103669;1289;545493;-70
2024/02/01 14:49:50;;;;;;;9.90;3.20;;;;;;;;;;103735;1288;544791;-70
2024/02/01 14:53:33;;;;;;;9.30;2.60;;;;;;;;;;103758;1292;544631;-72
2024/02/01 14:57:09;;;;;;;11.60;3.80;;;;;;;;;;103734;1289;545465;-72
2024/02/01 15:00:50;;;;;;;10.40;3.40;;;;;;;;;;103681;1290;544795;-72
2024/02/01 15:04:26;;;;;;;9.20;3.50;;;;;;;;;;103779;1289;544851;-71
2024/02/01 15:08:02;;;;;;;12.60;3.20;;;;;;;;;;103622;1291;545243;-69
2024/02/01 15:11:39;;;;;;;10.10;3.90;;;;;;;;;;103877;1301;545491;-70
2024/02/01 15:15:20;;;;;;;10.00;3.40;;;;;;;;;;103645;1292;544765;-72
2024/02/01 15:18:54;;;;;;;10.10;3.30;;;;;;;;;;103759;1295;545863;-71
2024/02/01 15:22:32;;;;;;;12.00;3.40;;;;;;;;;;103686;1292;545445;-71
2024/02/01 15:26:09;;;;;;;9.20;3.00;;;;;;;;;;103762;1290;544972;-72
2024/02/01 15:29:47;;;;;;;26.00;18.80;;;;;;;;;;103675;1291;544991;-72
2024/02/01 15:33:24;;;;;;;21.80;12.90;;;;;;;;;;103789;1292;544960;-72
2024/02/01 15:37:01;;;;;;;9.70;4.30;;;;;;;;;;104638;1282;544775;-72
2024/02/01 15:40:39;;;;;;;10.80;3.40;;;;;;;;;;103737;1289;545217;-72
2024/02/01 15:44:13;;;;;;;10.10;3.80;;;;;;;;;;103750;1289;545531;-72
2024/02/01 15:47:50;;;;;;;10.90;4.70;;;;;;;;;;103482;1295;544789;-71
2024/02/01 15:51:31;;;;;;;10.50;4.60;;;;;;;;;;103606;1295;544988;-70
2024/02/01 15:55:11;;;;;;;12.70;5.10;;;;;;;;;;103840;1289;544893;-72
2024/02/01 15:58:48;;;;;;;13.60;7.00;;;;;;;;;;103591;1291;545840;-72
2024/02/01 16:02:23;;;;;;;20.40;11.80;;;;;;;;;;103826;1289;544985;-72
2024/02/01 16:06:06;;;;;;;16.80;9.40;;;;;;;;;;103640;1291;545145;-71
2024/02/01 16:09:39;;;;;;;17.70;9.30;;;;;;;;;;103738;1289;544753;-71
2024/02/01 16:13:16;;;;;;;15.70;8.30;;;;;;;;;;103604;1289;544839;-72
2024/02/01 16:16:54;;;;;;;19.60;9.00;;;;;;;;;;103777;1292;544964;-69
2024/02/01 16:20:50;;;;;;;14.00;6.10;;;;;;;;;;103700;1294;544812;-72
2024/02/01 16:24:10;;;;;;;16.10;8.70;;;;;;;;;;103794;1289;545671;-72
2024/02/01 16:27:57;;;;;;;17.60;7.60;;;;;;;;;;103495;1289;545934;-72
2024/02/01 16:31:24;;;;;;;24.40;10.50;;;;;;;;;;103706;1293;545055;-70
2024/02/01 16:35:04;;;;;;;17.20;9.50;;;;;;;;;;103706;1292;544927;-72
2024/02/01 16:38:38;;;;;;;17.60;9.10;;;;;;;;;;103687;1292;545110;-72
2024/02/01 16:42:19;;;;;;;18.00;8.40;;;;;;;;;;103669;1292;545123;-72
2024/02/01 16:45:53;;;;;;;16.00;6.00;;;;;;;;;;103936;1291;545082;-70
2024/02/01 16:49:36;;;;;;;18.20;6.50;;;;;;;;;;104095;1288;545082;-71
2024/02/01 16:53:10;;;;;;;17.70;6.40;;;;;;;;;;103829;1289;545488;-72
2024/02/01 16:56:47;;;;;;;18.40;6.30;;;;;;;;;;103831;1291;545574;-70
2024/02/01 17:00:23;;;;;;;15.40;5.10;;;;;;;;;;103749;1289;545079;-71
2024/02/01 17:04:04;;;;;;;14.10;3.90;;;;;;;;;;103745;1292;545971;-72
2024/02/01 17:07:37;;;;;;;26.40;9.40;;;;;;;;;;103743;1289;544854;-71
2024/02/01 17:11:24;;;;;;;15.60;4.70;;;;;;;;;;103688;1302;544855;-71
2024/02/01 17:14:55;;;;;;;22.80;8.30;;;;;;;;;;103709;1291;546385;-72
2024/02/01 17:18:31;;;;;;;19.80;8.30;;;;;;;;;;103520;1291;544651;-72
2024/02/01 17:22:12;;;;;;;14.40;4.70;;;;;;;;;;103750;1292;545079;-72
2024/02/01 17:26:05;;;;;;;13.20;6.10;;;;;;;;;;103680;1289;544716;-70
2024/02/01 17:29:25;;;;;;;13.10;5.30;;;;;;;;;;103671;1290;544982;-72
2024/02/01 17:33:00;;;;;;;15.40;5.90;;;;;;;;;;103652;1290;545009;-71
2024/02/01 17:36:38;;;;;;;18.30;7.30;;;;;;;;;;103668;1291;545254;-72
2024/02/01 17:40:18;;;;;;;15.80;5.60;;;;;;;;;;103816;1292;544782;-72
2024/02/01 17:43:49;;;;;;;21.00;9.00;;;;;;;;;;103697;1288;545846;-71
2024/02/01 17:47:30;;;;;;;18.80;6.50;;;;;;;;;;103725;1289;545269;-71
2024/02/01 17:51:10;;;;;;;26.60;11.30;;;;;;;;;;103650;1301;545017;-72
2024/02/01 17:54:41;;;;;;;41.40;18.00;;;;;;;;;;103896;1289;545684;-71
2024/02/01 17:58:31;;;;;;;16.80;4.90;;;;;;;;;;103770;1289;544699;-72
2024/02/01 18:02:00;;;;;;;13.60;4.50;;;;;;;;;;103687;1289;544920;-72
2024/02/01 18:05:37;;;;;;;15.00;4.30;;;;;;;;;;103666;1290;545654;-72
2024/02/01 18:09:35;;;;;;;12.40;3.40;;;;;;;;;;103604;1292;545662;-71
2024/02/01 18:12:57;;;;;;;13.50;4.20;;;;;;;;;;103574;1292;547896;-72
2024/02/01 18:16:30;;;;;;;15.50;5.80;;;;;;;;;;103646;1291;544845;-72
2024/02/01 18:20:07;;;;;;;17.00;4.70;;;;;;;;;;104619;1283;545027;-72
2024/02/01 18:23:45;;;;;;;14.90;4.00;;;;;;;;;;103713;1289;544811;-71
2024/02/01 18:27:25;;;;;;;14.80;4.30;;;;;;;;;;103687;1291;544747;-72
2024/02/01 18:31:03;;;;;;;17.60;4.80;;;;;;;;;;103661;1289;545326;-71
2024/02/01 18:34:37;;;;;;;15.70;4.90;;;;;;;;;;103606;1295;544792;-72
2024/02/01 18:38:17;;;;;;;19.00;6.60;;;;;;;;;;103763;1288;545564;-72
2024/02/01 18:41:50;;;;;;;17.60;4.50;;;;;;;;;;103904;1290;546185;-71
2024/02/01 18:45:37;;;;;;;17.10;5.50;;;;;;;;;;103699;1289;545974;-72
2024/02/01 18:49:08;;;;;;;15.50;4.70;;;;;;;;;;103700;1289;544982;-71
2024/02/01 18:52:45;;;;;;;12.30;3.30;;;;;;;;;;103653;1292;544850;-72
2024/02/01 18:56:21;;;;;;;14.00;3.70;;;;;;;;;;103806;1291;545175;-72
2024/02/01 19:00:03;;;;;;;16.20;5.50;;;;;;;;;;103631;1294;544736;-72
2024/02/01 19:03:36;;;;;;;18.30;11.30;;;;;;;;;;103957;1289;545054;-70
2024/02/01 19:07:15;;;;;;;12.30;4.00;;;;;;;;;;103721;1294;546005;-71
2024/02/01 19:10:53;;;;;;;15.20;6.30;;;;;;;;;;103687;1292;545388;-70
2024/02/01 19:14:37;;;;;;;18.50;6.00;;;;;;;;;;103721;1289;545168;-72
2024/02/01 19:18:09;;;;;;;15.20;5.80;;;;;;;;;;103727;1292;545624;-71
2024/02/01 19:21:40;;;;;;;15.70;5.60;;;;;;;;;;103899;1292;545324;-72
2024/02/01 19:25:22;;;;;;;15.30;4.10;;;;;;;;;;103798;1289;545385;-71
2024/02/01 19:29:19;;;;;;;13.60;3.40;;;;;;;;;;103615;1295;549055;-71
2024/02/01 19:32:42;;;;;;;14.80;4.40;;;;;;;;;;103769;1290;544771;-71
2024/02/01 19:36:25;;;;;;;14.00;4.60;;;;;;;;;;103573;1292;545478;-71
2024/02/01 19:39:47;;;;;;;19.20;5.10;;;;;;;;;;103882;1289;544938;-71
2024/02/01 19:43:31;;;;;;;15.80;4.30;;;;;;;;;;103685;1295;545145;-72
2024/02/01 19:47:06;;;;;;;16.60;4.40;;;;;;;;;;103663;1289;545012;-72
2024/02/01 19:50:44;;;;;;;14.50;4.10;;;;;;;;;;103643;1294;545447;-71
2024/02/01 19:54:21;;;;;;;12.80;3.30;;;;;;;;;;103786;1289;544987;-71
2024/02/01 19:57:59;;;;;;;17.20;6.60;;;;;;;;;;103571;1288;544946;-71
2024/02/01 20:01:32;;;;;;;14.20;3.00;;;;;;;;;;103720;1289;545055;-71
2024/02/01 20:05:10;;;;;;;19.00;3.30;;;;;;;;;;103773;1288;545729;-71
2024/02/01 20:08:50;;;;;;;17.40;4.00;;;;;;;;;;103747;1295;545989;-72
2024/02/01 20:12:29;;;;;;;13.20;3.80;;;;;;;;;;103675;1291;545098;-72
2024/02/01 20:16:10;;;;;;;17.00;3.40;;;;;;;;;;103667;1290;544826;-71
2024/02/01 20:19:44;;;;;;;11.20;3.20;;;;;;;;;;103404;1291;544734;-72
2024/02/01 20:23:20;;;;;;;13.50;3.40;;;;;;;;;;103744;1289;545494;-71
2024/02/01 20:26:59;;;;;;;14.50;4.00;;;;;;;;;;103656;1289;545108;-71
2024/02/01 20:30:35;;;;;;;11.50;3.20;;;;;;;;;;104061;1288;545000;-72
2024/02/01 20:34:25;;;;;;;14.30;3.40;;;;;;;;;;103727;1292;544988;-71
2024/02/01 20:38:06;;;;;;;13.70;3.50;;;;;;;;;;103729;1288;545896;-72
2024/02/01 20:41:32;;;;;;;13.30;3.10;;;;;;;;;;103479;1292;545587;-71
2024/02/01 20:45:09;;;;;;;22.50;6.90;;;;;;;;;;103278;1291;545110;-72
2024/02/01 20:48:44;;;;;;;18.60;5.00;;;;;;;;;;103426;1290;545076;-72
2024/02/01 20:52:23;;;;;;;20.50;8.20;;;;;;;;;;103488;1289;545010;-71
2024/02/01 20:55:58;;;;;;;26.80;11.50;;;;;;;;;;103635;1288;544715;-71
2024/02/01 20:59:43;;;;;;;18.70;5.80;;;;;;;;;;104085;1289;545043;-72
2024/02/01 21:03:15;;;;;;;25.50;10.00;;;;;;;;;;103527;1290;545862;-69
2024/02/01 21:06:51;;;;;;;15.00;4.30;;;;;;;;;;103718;1291;544780;-72
2024/02/01 21:10:42;;;;;;;15.80;6.40;;;;;;;;;;103701;1291;544742;-71
2024/02/01 21:14:15;;;;;;;16.50;4.30;;;;;;;;;;103696;1292;545144;-72
2024/02/01 21:17:46;;;;;;;16.10;5.10;;;;;;;;;;103580;1292;544828;-71
2024/02/01 21:21:21;;;;;;;17.40;3.70;;;;;;;;;;103754;1288;545127;-72
2024/02/01 21:24:58;;;;;;;15.90;5.30;;;;;;;;;;103988;1285;545007;-71